Etusivu
METAR-TAF:

METAR-TAF

Lentoasemat :

Chibougamau, Quebec, Kanada

Leveyspiiri: 49-46N, Pituuspiiri: 074-32W, korkeus merenpinnasta: 388 m

Tämänhetkinen sää

Tämä raportti tehtiin 16 minuuttia sitten, kello 10.32 UTC
Tuuli 6 kn lännestä/luoteesta
Lämpötila -9°C
Kosteus 85%
Ilmanpaine 1009 hPa
Näkyvyys: 14.5 km
Hajanaisia pilviä 1500 ft:n korkeudessa
heikkoa lumisadetta

METAR: CYMT 061032Z AUTO 30006KT 9SM -SN SCT015 M09/M11 A2979 RMK SLP118

Aika: 05:48 (10:48 UTC)

Sääennuste

Tämä raportti tehtiin 17 tuntia ja 6 minuuttia sitten, kello 17.42 UTC
Ennuste voimassa 05. päivästä klo 18 UTC - 06. päivään klo 01 UTC
Tuuli 10 kn lännestä/luoteesta
Näkyvyys: 10 km
Pilvistä 2500 ft:n korkeudessa
heikkoa lumisadetta
Ajoittain
05. päivästä klo 18 UTC - 06. päivään klo 01 UTC
Pilvistä 1200 ft:n korkeudessa
heikkoa lumisadetta

TAF: CYMT 051742Z 0518/0601 29010KT P6SM -SN OVC025 TEMPO 0518/0601 11/2SM -SN OVC012 RMK FCST BASED ON AUTO OBS. NXT FCST WILL BE ISSUED AT 061245Z

Säähavainnot ja -ennusteet yli 4000 lentoasemalta (METAR- ja TAF-raportit).

Käytössä olevat sääasemat on merkitty karttaan keltaisilla ja punaisilla pisteillä.

Aseta hiiri pisteen päälle nähdäksesi sääaseman nimen.

Klikkaa sitten nähdäksesi säähavainnot ja -ennusteet.

Kartan vaihtaminen: klikkaa mustalla rastilla varustettuja vihreitä pisteitä, niin voit zoomata sisään; viivalla varustettua vihreää pistettä, niin voit zoomata ulos tai vihreitä nuolia, niin pääset viereisille kartoille.


METAR-TAF: